createdAt,value
2022-09-01T04:47:08.162Z,26.23
2022-09-01T04:58:17.826Z,26.40
2022-09-01T05:00:49.742Z,26.53
2022-09-01T05:03:24.377Z,25.67
2022-09-01T05:06:25.382Z,23.80
2022-09-01T05:08:59.765Z,22.90
2022-09-01T05:11:50.780Z,23.23
2022-09-01T05:14:27.788Z,20.43
2022-09-01T05:16:59.381Z,21.93
2022-09-01T05:19:29.914Z,22.70
2022-09-01T05:22:00.764Z,21.70
2022-09-01T05:24:32.119Z,23.20
2022-09-01T05:27:04.892Z,22.47
2022-09-01T05:29:42.241Z,21.77
2022-09-01T05:32:12.630Z,20.67
2022-09-01T05:34:43.830Z,21.83
2022-09-01T05:37:13.140Z,21.53
2022-09-01T05:39:41.731Z,21.63
2022-09-01T05:42:11.018Z,22.13
2022-09-01T05:44:44.220Z,21.43
2022-09-01T05:47:21.047Z,21.77
2022-09-01T05:49:53.635Z,22.20
2022-09-01T05:52:26.165Z,21.37
2022-09-01T05:54:56.771Z,21.13
2022-09-01T05:57:35.081Z,22.33
2022-09-01T06:00:11.035Z,21.10
2022-09-01T06:02:42.890Z,20.87
2022-09-01T06:05:16.170Z,22.53
2022-09-01T06:07:45.435Z,21.27
2022-09-01T06:10:16.174Z,21.73
2022-09-01T06:12:45.328Z,21.80
2022-09-01T06:15:21.020Z,21.20
2022-09-01T06:17:52.571Z,20.90
2022-09-01T06:20:21.758Z,21.33
2022-09-01T06:22:52.576Z,21.20
2022-09-01T06:25:23.839Z,21.30
2022-09-01T06:27:53.950Z,20.23
2022-09-01T06:30:26.436Z,21.20
2022-09-01T06:33:02.195Z,21.60
2022-09-01T06:35:31.923Z,20.90
2022-09-01T06:38:03.068Z,20.77
2022-09-01T06:41:02.026Z,21.53
2022-09-01T06:43:30.849Z,22.43
2022-09-01T06:46:02.855Z,20.07
2022-09-01T06:48:31.934Z,20.60
2022-09-01T06:51:21.692Z,20.20
2022-09-01T06:53:59.538Z,21.20
2022-09-01T06:56:34.075Z,20.50
2022-09-01T06:59:15.560Z,21.47
2022-09-01T07:01:51.615Z,21.40
2022-09-01T07:04:25.582Z,21.00
2022-09-01T07:06:59.347Z,20.50
2022-09-01T07:10:05.695Z,20.17
2022-09-01T07:13:04.817Z,21.73
2022-09-01T07:18:22.527Z,21.70
2022-09-01T07:21:35.836Z,21.50
2022-09-01T07:24:07.865Z,21.20
2022-09-01T07:26:29.335Z,20.80
2022-09-01T07:29:02.003Z,20.70
2022-09-01T07:31:50.538Z,20.13
2022-09-01T07:34:38.948Z,20.60
2022-09-01T07:43:09.603Z,21.90
2022-09-01T07:46:00.496Z,22.53
2022-09-01T07:49:02.645Z,21.87
2022-09-01T07:51:41.324Z,21.10
2022-09-01T07:54:13.930Z,21.07
2022-09-01T07:56:43.193Z,21.47
2022-09-01T07:59:15.212Z,21.37
2022-09-01T08:02:05.807Z,20.73
2022-09-01T08:04:34.570Z,21.40
2022-09-01T08:07:06.790Z,21.90
2022-09-01T08:09:44.108Z,21.73
2022-09-01T08:12:13.750Z,22.43
2022-09-01T08:14:47.734Z,21.17
2022-09-01T08:17:18.055Z,21.27
2022-09-01T08:20:07.171Z,21.10
2022-09-01T08:22:58.696Z,21.10
2022-09-01T08:25:39.532Z,20.70
2022-09-01T08:28:10.915Z,21.03
2022-09-01T08:30:41.488Z,20.30
2022-09-01T08:33:18.101Z,19.70
2022-09-01T08:35:49.923Z,19.57
2022-09-01T08:38:21.212Z,19.53
2022-09-01T08:40:56.984Z,19.23
2022-09-01T08:43:43.007Z,19.40
2022-09-01T08:46:18.108Z,19.30
2022-09-01T08:52:07.383Z,19.40
2022-09-01T08:54:43.711Z,18.87
2022-09-01T08:57:17.718Z,18.87
2022-09-01T09:00:07.012Z,18.83
2022-09-01T09:02:52.288Z,21.23
2022-09-01T09:05:32.905Z,19.10
2022-09-01T09:08:18.480Z,18.60
2022-09-01T09:10:56.411Z,19.10
2022-09-01T09:13:32.791Z,18.87
2022-09-01T09:16:08.354Z,18.60
2022-09-01T09:19:00.603Z,19.90
2022-09-01T09:21:36.146Z,19.23
2022-09-01T09:24:10.862Z,19.17
2022-09-01T09:26:43.510Z,19.20
2022-09-01T09:29:11.747Z,18.83
2022-09-01T09:31:49.891Z,18.37
2022-09-01T09:34:30.189Z,17.70
2022-09-01T09:36:58.443Z,18.10
2022-09-01T09:39:26.986Z,18.37
2022-09-01T09:42:11.933Z,21.50
2022-09-01T09:44:45.083Z,18.43
2022-09-01T09:47:43.719Z,18.30
2022-09-01T09:50:20.211Z,18.30
2022-09-01T09:52:49.489Z,17.87
2022-09-01T09:55:27.781Z,18.10
2022-09-01T09:58:00.403Z,18.40
2022-09-01T10:00:33.960Z,18.00
2022-09-01T10:03:04.610Z,17.57
2022-09-01T10:05:43.203Z,18.10
2022-09-01T10:08:15.734Z,18.53
2022-09-01T10:10:45.859Z,20.17
2022-09-01T10:13:32.501Z,18.93
2022-09-01T10:16:08.094Z,18.90
2022-09-01T10:18:39.580Z,18.47
2022-09-01T10:21:13.137Z,18.23
2022-09-01T10:23:44.807Z,18.57
2022-09-01T10:26:20.254Z,18.30
2022-09-01T10:28:55.693Z,18.60
2022-09-01T10:31:32.217Z,18.33
2022-09-01T10:34:06.468Z,18.63
2022-09-01T10:36:37.813Z,18.30
2022-09-01T10:39:11.379Z,17.23
2022-09-01T10:41:53.364Z,17.17
2022-09-01T10:44:34.461Z,17.33
2022-09-01T10:47:14.595Z,16.90
2022-09-01T10:49:59.861Z,18.10
2022-09-01T10:53:01.866Z,17.30
2022-09-01T10:55:46.350Z,16.93
2022-09-01T11:01:53.986Z,17.20
2022-09-01T11:05:17.649Z,16.77
2022-09-01T11:08:09.087Z,16.50
2022-09-01T11:10:55.488Z,16.40
2022-09-01T11:13:37.024Z,16.97
2022-09-01T11:16:47.166Z,16.90
2022-09-01T11:19:32.802Z,16.30
2022-09-01T11:22:31.033Z,16.30
2022-09-01T11:25:42.272Z,16.53
2022-09-01T11:28:39.194Z,16.87
2022-09-01T11:31:31.012Z,16.50
2022-09-01T11:34:20.932Z,16.87
2022-09-01T11:36:55.597Z,17.93
2022-09-01T11:39:40.549Z,17.37
2022-09-01T11:42:14.706Z,17.47
2022-09-01T11:44:49.963Z,16.77
2022-09-01T11:47:23.118Z,16.00
2022-09-01T11:49:55.024Z,16.00
2022-09-01T11:52:30.098Z,16.27
2022-09-01T11:55:01.064Z,17.30
2022-09-01T11:57:32.458Z,16.97
2022-09-01T12:00:02.368Z,16.57
2022-09-01T12:02:45.490Z,16.83
2022-09-01T12:05:29.722Z,16.80
2022-09-01T12:07:58.881Z,17.53
2022-09-01T12:10:34.416Z,17.30
2022-09-01T12:13:07.945Z,18.17
2022-09-01T12:15:54.965Z,17.20
2022-09-01T12:18:35.121Z,17.23
2022-09-01T12:21:07.916Z,16.97
2022-09-01T12:23:38.717Z,18.53
2022-09-01T12:26:11.016Z,17.30
2022-09-01T12:28:41.696Z,17.00
2022-09-01T12:31:15.904Z,17.17
2022-09-01T12:33:45.101Z,17.00
2022-09-01T12:36:24.850Z,18.03
2022-09-01T12:38:55.138Z,17.00
2022-09-01T12:41:35.216Z,18.27
2022-09-01T12:44:30.675Z,17.17
2022-09-01T12:47:01.724Z,16.07
2022-09-01T12:49:45.212Z,16.57
2022-09-01T12:52:26.479Z,17.30
2022-09-01T12:55:09.104Z,16.43
2022-09-01T12:57:45.260Z,16.30
2022-09-01T13:00:20.382Z,16.80
2022-09-01T13:02:50.989Z,17.63
2022-09-01T13:05:28.465Z,17.10
2022-09-01T13:08:07.629Z,17.10
2022-09-01T13:10:43.141Z,16.47
2022-09-01T13:13:15.006Z,17.87
2022-09-01T13:15:48.205Z,16.97
2022-09-01T13:18:16.645Z,18.00
2022-09-01T13:20:45.475Z,17.40
2022-09-01T13:23:13.789Z,16.60
2022-09-01T13:25:44.338Z,16.20
2022-09-01T13:28:18.010Z,18.23
2022-09-01T13:31:28.445Z,15.70
2022-09-01T13:36:48.530Z,15.80
2022-09-01T13:39:17.421Z,16.00
2022-09-01T13:41:47.521Z,14.97
2022-09-01T13:44:18.408Z,16.53
2022-09-01T13:50:04.745Z,16.00
2022-09-01T13:52:23.544Z,16.07
2022-09-01T13:54:51.976Z,16.50
2022-09-01T13:57:20.157Z,16.50
2022-09-01T13:59:49.738Z,15.87
2022-09-01T14:02:18.183Z,16.10
2022-09-01T14:04:47.371Z,16.20
2022-09-01T14:07:16.170Z,15.73
2022-09-01T14:09:44.304Z,16.00
2022-09-01T14:12:12.766Z,15.87
2022-09-01T14:17:30.725Z,15.60
2022-09-01T14:19:58.895Z,16.27
2022-09-01T14:22:27.121Z,15.80
2022-09-01T14:24:55.291Z,16.30
2022-09-01T14:27:26.143Z,15.97
2022-09-01T14:29:56.648Z,15.77
2022-09-01T14:32:26.729Z,15.97
2022-09-01T14:34:59.150Z,16.40
2022-09-01T14:37:27.764Z,15.57
2022-09-01T14:39:59.238Z,16.00
2022-09-01T14:42:29.018Z,16.33
2022-09-01T14:44:57.482Z,15.87
2022-09-01T14:47:26.044Z,16.43
2022-09-01T14:49:56.791Z,16.70
2022-09-01T14:52:31.597Z,16.63
2022-09-01T14:55:00.180Z,16.87
2022-09-01T14:57:37.506Z,17.30
2022-09-01T15:00:10.952Z,15.87
2022-09-01T15:02:39.490Z,17.47
2022-09-01T15:05:08.891Z,17.10
2022-09-01T15:07:39.179Z,16.27
2022-09-01T15:10:09.973Z,16.20
2022-09-01T15:12:39.779Z,16.83
2022-09-01T15:15:10.010Z,15.90
2022-09-01T15:17:40.334Z,16.00
2022-09-01T15:20:29.663Z,15.57
2022-09-01T15:22:59.278Z,16.70
2022-09-01T15:25:30.430Z,16.20
2022-09-01T15:28:01.351Z,17.00
2022-09-01T15:30:29.820Z,17.07
2022-09-01T15:33:00.653Z,17.40
2022-09-01T15:35:30.228Z,16.93
2022-09-01T15:37:59.765Z,17.00
2022-09-01T15:40:36.496Z,17.30
2022-09-01T15:43:07.118Z,17.20
2022-09-01T15:45:35.821Z,17.07
2022-09-01T15:48:04.820Z,16.80
2022-09-01T15:50:33.338Z,16.53
2022-09-01T15:53:08.366Z,18.37
2022-09-01T15:55:41.865Z,16.73
2022-09-01T15:58:16.076Z,17.60
2022-09-01T16:00:45.751Z,16.90
2022-09-01T16:03:14.705Z,16.90
2022-09-01T16:05:43.261Z,16.40
2022-09-01T16:08:13.287Z,16.27
2022-09-01T16:10:42.296Z,16.87
2022-09-01T16:13:13.146Z,16.30
2022-09-01T16:15:47.483Z,16.50
2022-09-01T16:18:33.598Z,15.67
2022-09-01T16:21:17.167Z,15.80
2022-09-01T16:23:50.009Z,15.57
2022-09-01T16:26:20.276Z,15.33
2022-09-01T16:28:50.510Z,15.50
2022-09-01T16:31:24.826Z,15.10
2022-09-01T16:33:56.001Z,15.33
2022-09-01T16:36:35.838Z,14.20
2022-09-01T16:39:14.179Z,14.90
2022-09-01T16:41:52.679Z,14.50
2022-09-01T16:44:31.899Z,14.60
2022-09-01T16:47:07.601Z,15.20
2022-09-01T16:49:42.768Z,15.30
2022-09-01T16:52:17.841Z,15.50
2022-09-01T16:55:02.688Z,14.40
2022-09-01T16:57:41.347Z,15.50
2022-09-01T17:00:14.092Z,15.57
2022-09-01T17:02:52.528Z,14.93
2022-09-01T17:05:30.163Z,14.63
2022-09-01T17:08:07.761Z,15.20
2022-09-01T17:10:43.697Z,15.20
2022-09-01T17:13:20.207Z,14.90
2022-09-01T17:15:56.009Z,14.83
2022-09-01T17:18:33.503Z,15.90
2022-09-01T17:21:12.605Z,15.17
2022-09-01T17:23:47.223Z,17.63
2022-09-01T17:26:22.542Z,15.70
2022-09-01T17:28:56.222Z,15.93
2022-09-01T17:31:41.826Z,15.80
2022-09-01T17:34:25.924Z,16.10
2022-09-01T17:37:09.053Z,16.40
2022-09-01T17:39:50.746Z,17.40
2022-09-01T17:42:32.720Z,18.60
2022-09-01T17:45:13.037Z,18.47
2022-09-01T17:47:52.561Z,19.00
2022-09-01T17:50:29.297Z,16.97
2022-09-01T18:01:44.711Z,16.63
2022-09-01T18:05:00.239Z,17.80
2022-09-01T18:08:02.283Z,16.33
2022-09-01T18:10:35.411Z,15.90
2022-09-01T18:13:10.080Z,15.40
2022-09-01T18:16:00.468Z,15.43
2022-09-01T18:18:35.642Z,16.10
2022-09-01T18:21:24.962Z,15.67
2022-09-01T18:24:05.533Z,16.23
2022-09-01T18:26:37.885Z,16.83
2022-09-01T18:29:07.094Z,16.60
2022-09-01T18:32:04.362Z,16.33
2022-09-01T18:35:03.821Z,16.67
2022-09-01T18:37:40.184Z,16.73
2022-09-01T18:40:20.228Z,16.80
2022-09-01T18:42:56.703Z,16.90
2022-09-01T18:45:33.689Z,17.60
2022-09-01T18:48:10.901Z,17.70
2022-09-01T18:50:51.113Z,17.20
2022-09-01T18:53:31.491Z,16.73
2022-09-01T18:56:06.968Z,16.50
2022-09-01T18:58:49.818Z,17.13
2022-09-01T19:01:30.033Z,16.83
2022-09-01T19:04:10.196Z,17.27
2022-09-01T19:06:53.172Z,17.20
2022-09-01T19:09:28.178Z,17.80
2022-09-01T19:12:10.734Z,17.97
2022-09-01T19:14:47.766Z,17.23
2022-09-01T19:17:31.414Z,17.57
2022-09-01T19:20:03.822Z,16.60
2022-09-01T19:22:40.571Z,17.60
2022-09-01T19:25:37.384Z,16.90
2022-09-01T19:28:12.679Z,17.67
2022-09-01T19:30:47.064Z,16.93
2022-09-01T19:33:22.484Z,17.63
2022-09-01T19:35:56.421Z,16.97
2022-09-01T19:38:29.061Z,17.30
2022-09-01T19:41:03.277Z,17.60
2022-09-01T19:43:37.221Z,22.37
2022-09-01T19:46:18.854Z,17.10
2022-09-01T19:48:51.749Z,16.70
2022-09-01T19:51:27.421Z,16.67
2022-09-01T19:54:02.267Z,17.80
2022-09-01T19:56:35.540Z,16.20
2022-09-01T19:59:14.098Z,15.77
2022-09-01T20:01:47.613Z,15.70
2022-09-01T20:04:28.304Z,16.27
2022-09-01T20:07:00.262Z,16.43
2022-09-01T20:09:38.733Z,16.50
2022-09-01T20:12:15.442Z,16.60
2022-09-01T20:14:57.691Z,14.50
2022-09-01T20:17:32.187Z,16.10
2022-09-01T20:20:08.741Z,15.90
2022-09-01T20:22:48.750Z,15.20
2022-09-01T20:25:25.850Z,15.73
2022-09-01T20:28:01.040Z,15.60
2022-09-01T20:30:39.823Z,14.70
2022-09-01T20:33:17.025Z,15.57
2022-09-01T20:35:49.771Z,16.80
2022-09-01T20:38:42.544Z,15.50
2022-09-01T20:41:19.125Z,15.70
2022-09-01T20:43:52.203Z,16.10
2022-09-01T20:46:21.784Z,15.60
2022-09-01T20:48:50.955Z,15.90
2022-09-01T20:51:27.810Z,16.20
2022-09-01T20:54:07.723Z,15.50
2022-09-01T20:56:45.495Z,16.97
2022-09-01T20:59:21.488Z,16.57
2022-09-01T21:01:57.382Z,16.50
2022-09-01T21:04:39.316Z,16.70
2022-09-01T21:07:16.050Z,17.10
2022-09-01T21:09:57.277Z,17.13
2022-09-01T21:12:36.142Z,17.13
2022-09-01T21:15:20.671Z,17.30
2022-09-01T21:18:00.230Z,16.50
2022-09-01T21:20:48.029Z,17.67
2022-09-01T21:23:16.346Z,17.13
2022-09-01T21:25:45.165Z,17.47
2022-09-01T21:28:20.056Z,17.50
2022-09-01T21:30:50.807Z,17.20
2022-09-01T21:33:19.060Z,17.10
2022-09-01T21:35:47.183Z,17.10
2022-09-01T21:38:15.307Z,16.33
2022-09-01T21:40:46.666Z,16.20
2022-09-01T21:43:19.468Z,16.40
2022-09-01T21:45:48.241Z,16.90
2022-09-01T21:48:16.716Z,16.50
2022-09-01T21:50:45.272Z,16.70
2022-09-01T21:53:14.501Z,16.90
2022-09-01T21:55:43.240Z,16.43
2022-09-01T21:58:13.570Z,17.50
2022-09-01T22:00:44.470Z,17.40
2022-09-01T22:03:14.721Z,16.93
2022-09-01T22:05:45.436Z,17.30
2022-09-01T22:08:17.616Z,19.40
2022-09-01T22:10:49.701Z,17.53
2022-09-01T22:13:18.016Z,17.20
2022-09-01T22:15:50.103Z,17.50
2022-09-01T22:18:19.710Z,17.53
2022-09-01T22:20:48.183Z,17.37
2022-09-01T22:23:20.444Z,18.07
2022-09-01T22:25:49.194Z,17.83
2022-09-01T22:28:19.866Z,17.60
2022-09-01T22:30:51.791Z,17.50
2022-09-01T22:33:21.698Z,16.80
2022-09-01T22:35:53.029Z,16.80
2022-09-01T22:38:24.491Z,16.23
2022-09-01T22:40:55.808Z,17.10
2022-09-01T22:43:25.129Z,16.70
2022-09-01T22:45:55.601Z,16.80
2022-09-01T22:48:25.657Z,17.47
2022-09-01T22:50:54.988Z,16.73
2022-09-01T22:53:23.576Z,17.20
2022-09-01T22:55:53.955Z,17.40
2022-09-01T22:58:24.501Z,17.30
2022-09-01T23:00:55.968Z,16.53
2022-09-01T23:03:24.628Z,16.37
2022-09-01T23:06:04.435Z,16.40
2022-09-01T23:08:33.135Z,16.17
2022-09-01T23:11:03.875Z,16.10
2022-09-01T23:13:34.233Z,16.93
2022-09-01T23:16:06.432Z,16.10
2022-09-01T23:18:36.895Z,16.10
2022-09-01T23:21:07.282Z,15.77
2022-09-01T23:23:36.776Z,16.93
2022-09-01T23:26:06.758Z,15.70
2022-09-01T23:28:38.906Z,16.17
2022-09-01T23:31:10.915Z,16.30
2022-09-01T23:33:39.354Z,15.37
2022-09-01T23:36:11.448Z,15.47
2022-09-01T23:38:40.334Z,16.07
2022-09-01T23:41:14.149Z,15.90
2022-09-01T23:43:42.927Z,15.63
2022-09-01T23:46:20.468Z,16.30
2022-09-01T23:48:49.067Z,16.10
2022-09-01T23:51:19.098Z,16.03
2022-09-01T23:53:48.118Z,16.10
2022-09-01T23:56:25.125Z,15.93
2022-09-01T23:58:55.989Z,17.50
